sensor_id;sensor_type;location;lat;lon;timestamp;P1;durP1;ratioP1;P2;durP2;ratioP2
33993;SDS011;20673;48.980;8.138;2023-10-31T00:01:52;1.98;;;0.60;;
33993;SDS011;20673;48.980;8.138;2023-10-31T00:04:19;2.33;;;0.35;;
33993;SDS011;20673;48.980;8.138;2023-10-31T00:06:45;0.53;;;0.50;;
33993;SDS011;20673;48.980;8.138;2023-10-31T00:09:11;0.82;;;0.62;;
33993;SDS011;20673;48.980;8.138;2023-10-31T00:11:38;1.22;;;0.42;;
33993;SDS011;20673;48.980;8.138;2023-10-31T00:14:09;1.63;;;0.37;;
33993;SDS011;20673;48.980;8.138;2023-10-31T00:16:35;0.75;;;0.30;;
33993;SDS011;20673;48.980;8.138;2023-10-31T00:19:01;1.32;;;0.33;;
33993;SDS011;20673;48.980;8.138;2023-10-31T00:21:28;0.72;;;0.30;;
33993;SDS011;20673;48.980;8.138;2023-10-31T00:23:54;1.65;;;0.30;;
33993;SDS011;20673;48.980;8.138;2023-10-31T00:26:20;1.37;;;0.42;;
33993;SDS011;20673;48.980;8.138;2023-10-31T00:28:48;2.08;;;0.50;;
33993;SDS011;20673;48.980;8.138;2023-10-31T00:31:14;0.45;;;0.30;;
33993;SDS011;20673;48.980;8.138;2023-10-31T00:33:41;0.55;;;0.30;;
33993;SDS011;20673;48.980;8.138;2023-10-31T00:36:10;1.55;;;0.33;;
33993;SDS011;20673;48.980;8.138;2023-10-31T00:38:37;1.82;;;0.70;;
33993;SDS011;20673;48.980;8.138;2023-10-31T00:41:03;2.12;;;0.37;;
33993;SDS011;20673;48.980;8.138;2023-10-31T00:43:30;1.30;;;0.40;;
33993;SDS011;20673;48.980;8.138;2023-10-31T00:45:56;1.02;;;0.45;;
33993;SDS011;20673;48.980;8.138;2023-10-31T00:48:22;0.53;;;0.30;;
33993;SDS011;20673;48.980;8.138;2023-10-31T00:50:48;1.27;;;0.30;;
33993;SDS011;20673;48.980;8.138;2023-10-31T00:53:14;2.30;;;0.50;;
33993;SDS011;20673;48.980;8.138;2023-10-31T00:55:41;1.15;;;0.20;;
33993;SDS011;20673;48.980;8.138;2023-10-31T00:58:09;1.60;;;0.50;;
33993;SDS011;20673;48.980;8.138;2023-10-31T01:00:35;1.47;;;0.45;;
33993;SDS011;20673;48.980;8.138;2023-10-31T01:03:03;2.08;;;0.62;;
33993;SDS011;20673;48.980;8.138;2023-10-31T01:05:29;0.45;;;0.28;;
33993;SDS011;20673;48.980;8.138;2023-10-31T01:07:55;1.00;;;0.20;;
33993;SDS011;20673;48.980;8.138;2023-10-31T01:10:21;3.92;;;0.85;;
33993;SDS011;20673;48.980;8.138;2023-10-31T01:12:48;0.50;;;0.20;;
33993;SDS011;20673;48.980;8.138;2023-10-31T01:15:14;0.70;;;0.30;;
33993;SDS011;20673;48.980;8.138;2023-10-31T01:17:40;2.47;;;0.42;;
33993;SDS011;20673;48.980;8.138;2023-10-31T01:20:07;4.25;;;0.88;;
33993;SDS011;20673;48.980;8.138;2023-10-31T01:22:35;1.27;;;0.37;;
33993;SDS011;20673;48.980;8.138;2023-10-31T01:25:01;1.65;;;0.30;;
33993;SDS011;20673;48.980;8.138;2023-10-31T01:27:27;0.88;;;0.47;;
33993;SDS011;20673;48.980;8.138;2023-10-31T01:29:54;1.75;;;0.45;;
33993;SDS011;20673;48.980;8.138;2023-10-31T01:32:20;0.68;;;0.25;;
33993;SDS011;20673;48.980;8.138;2023-10-31T01:34:46;1.37;;;0.30;;
33993;SDS011;20673;48.980;8.138;2023-10-31T01:37:12;2.02;;;0.45;;
33993;SDS011;20673;48.980;8.138;2023-10-31T01:39:40;3.60;;;0.45;;
33993;SDS011;20673;48.980;8.138;2023-10-31T01:42:06;3.30;;;0.50;;
33993;SDS011;20673;48.980;8.138;2023-10-31T01:44:33;1.27;;;0.47;;
33993;SDS011;20673;48.980;8.138;2023-10-31T01:46:59;0.42;;;0.23;;
33993;SDS011;20673;48.980;8.138;2023-10-31T01:49:25;2.40;;;0.30;;
33993;SDS011;20673;48.980;8.138;2023-10-31T01:51:51;0.47;;;0.35;;
33993;SDS011;20673;48.980;8.138;2023-10-31T01:54:17;2.15;;;0.60;;
33993;SDS011;20673;48.980;8.138;2023-10-31T01:56:43;1.17;;;0.45;;
33993;SDS011;20673;48.980;8.138;2023-10-31T01:59:11;1.12;;;0.45;;
33993;SDS011;20673;48.980;8.138;2023-10-31T02:01:38;0.75;;;0.37;;
33993;SDS011;20673;48.980;8.138;2023-10-31T02:04:05;0.90;;;0.45;;
33993;SDS011;20673;48.980;8.138;2023-10-31T02:06:31;1.62;;;0.70;;
33993;SDS011;20673;48.980;8.138;2023-10-31T02:08:58;3.35;;;1.50;;
33993;SDS011;20673;48.980;8.138;2023-10-31T02:14:14;2.70;;;1.98;;
33993;SDS011;20673;48.980;8.138;2023-10-31T02:16:40;3.83;;;2.70;;
33993;SDS011;20673;48.980;8.138;2023-10-31T02:19:06;2.08;;;1.70;;
33993;SDS011;20673;48.980;8.138;2023-10-31T02:21:33;3.33;;;0.75;;
33993;SDS011;20673;48.980;8.138;2023-10-31T02:24:04;2.62;;;0.68;;
33993;SDS011;20673;48.980;8.138;2023-10-31T02:26:29;3.08;;;0.72;;
33993;SDS011;20673;48.980;8.138;2023-10-31T02:29:00;5.50;;;0.62;;
33993;SDS011;20673;48.980;8.138;2023-10-31T02:31:27;2.80;;;0.57;;
33993;SDS011;20673;48.980;8.138;2023-10-31T02:33:53;1.90;;;0.30;;
33993;SDS011;20673;48.980;8.138;2023-10-31T02:36:20;2.02;;;0.55;;
33993;SDS011;20673;48.980;8.138;2023-10-31T02:38:46;1.85;;;0.50;;
33993;SDS011;20673;48.980;8.138;2023-10-31T02:41:13;2.70;;;0.65;;
33993;SDS011;20673;48.980;8.138;2023-10-31T02:43:39;0.85;;;0.42;;
33993;SDS011;20673;48.980;8.138;2023-10-31T02:46:06;3.22;;;0.75;;
33993;SDS011;20673;48.980;8.138;2023-10-31T02:48:33;4.40;;;0.72;;
33993;SDS011;20673;48.980;8.138;2023-10-31T02:51:01;2.72;;;0.60;;
33993;SDS011;20673;48.980;8.138;2023-10-31T02:53:27;0.85;;;0.33;;
33993;SDS011;20673;48.980;8.138;2023-10-31T02:55:53;1.17;;;0.50;;
33993;SDS011;20673;48.980;8.138;2023-10-31T02:58:19;2.45;;;0.75;;
33993;SDS011;20673;48.980;8.138;2023-10-31T03:00:45;1.30;;;0.72;;
33993;SDS011;20673;48.980;8.138;2023-10-31T03:03:11;2.55;;;0.60;;
33993;SDS011;20673;48.980;8.138;2023-10-31T03:05:37;2.17;;;0.33;;
33993;SDS011;20673;48.980;8.138;2023-10-31T03:08:03;2.80;;;0.45;;
33993;SDS011;20673;48.980;8.138;2023-10-31T03:10:29;5.60;;;0.50;;
33993;SDS011;20673;48.980;8.138;2023-10-31T03:12:55;0.75;;;0.40;;
33993;SDS011;20673;48.980;8.138;2023-10-31T03:15:21;2.67;;;0.50;;
33993;SDS011;20673;48.980;8.138;2023-10-31T03:17:47;0.50;;;0.33;;
33993;SDS011;20673;48.980;8.138;2023-10-31T03:20:13;1.62;;;0.47;;
33993;SDS011;20673;48.980;8.138;2023-10-31T03:22:40;0.50;;;0.40;;
33993;SDS011;20673;48.980;8.138;2023-10-31T03:25:06;0.57;;;0.40;;
33993;SDS011;20673;48.980;8.138;2023-10-31T03:27:32;2.83;;;0.53;;
33993;SDS011;20673;48.980;8.138;2023-10-31T03:29:58;4.37;;;1.55;;
33993;SDS011;20673;48.980;8.138;2023-10-31T03:32:24;1.30;;;0.40;;
33993;SDS011;20673;48.980;8.138;2023-10-31T03:34:50;7.67;;;0.75;;
33993;SDS011;20673;48.980;8.138;2023-10-31T03:37:17;2.20;;;0.30;;
33993;SDS011;20673;48.980;8.138;2023-10-31T03:39:43;3.95;;;0.78;;
33993;SDS011;20673;48.980;8.138;2023-10-31T03:42:09;1.07;;;0.30;;
33993;SDS011;20673;48.980;8.138;2023-10-31T03:44:35;2.25;;;0.35;;
33993;SDS011;20673;48.980;8.138;2023-10-31T03:47:01;2.02;;;0.30;;
33993;SDS011;20673;48.980;8.138;2023-10-31T03:49:27;1.35;;;0.50;;
33993;SDS011;20673;48.980;8.138;2023-10-31T03:51:53;3.40;;;0.40;;
33993;SDS011;20673;48.980;8.138;2023-10-31T03:54:19;2.55;;;0.80;;
33993;SDS011;20673;48.980;8.138;2023-10-31T03:56:45;0.78;;;0.45;;
33993;SDS011;20673;48.980;8.138;2023-10-31T03:59:13;3.70;;;0.30;;
33993;SDS011;20673;48.980;8.138;2023-10-31T04:01:39;1.85;;;0.30;;
33993;SDS011;20673;48.980;8.138;2023-10-31T04:04:05;4.55;;;0.80;;
33993;SDS011;20673;48.980;8.138;2023-10-31T04:06:31;0.42;;;0.30;;
33993;SDS011;20673;48.980;8.138;2023-10-31T04:08:57;2.42;;;0.30;;
33993;SDS011;20673;48.980;8.138;2023-10-31T04:11:23;1.95;;;0.57;;
33993;SDS011;20673;48.980;8.138;2023-10-31T04:13:50;1.30;;;0.45;;
33993;SDS011;20673;48.980;8.138;2023-10-31T04:16:16;2.27;;;0.53;;
33993;SDS011;20673;48.980;8.138;2023-10-31T04:18:42;2.40;;;0.40;;
33993;SDS011;20673;48.980;8.138;2023-10-31T04:21:08;0.30;;;0.20;;
33993;SDS011;20673;48.980;8.138;2023-10-31T04:23:34;2.60;;;0.53;;
33993;SDS011;20673;48.980;8.138;2023-10-31T04:26:00;1.80;;;0.40;;
33993;SDS011;20673;48.980;8.138;2023-10-31T04:28:26;0.80;;;0.40;;
33993;SDS011;20673;48.980;8.138;2023-10-31T04:30:52;1.05;;;0.30;;
33993;SDS011;20673;48.980;8.138;2023-10-31T04:33:18;1.35;;;0.28;;
33993;SDS011;20673;48.980;8.138;2023-10-31T04:35:44;4.10;;;0.85;;
33993;SDS011;20673;48.980;8.138;2023-10-31T04:38:10;1.17;;;0.40;;
33993;SDS011;20673;48.980;8.138;2023-10-31T04:40:36;2.98;;;0.50;;
33993;SDS011;20673;48.980;8.138;2023-10-31T04:43:02;2.85;;;0.50;;
33993;SDS011;20673;48.980;8.138;2023-10-31T04:45:29;1.75;;;0.50;;
33993;SDS011;20673;48.980;8.138;2023-10-31T04:47:55;1.60;;;0.55;;
33993;SDS011;20673;48.980;8.138;2023-10-31T04:50:21;1.32;;;0.47;;
33993;SDS011;20673;48.980;8.138;2023-10-31T04:52:47;2.00;;;0.50;;
33993;SDS011;20673;48.980;8.138;2023-10-31T04:55:13;1.85;;;0.40;;
33993;SDS011;20673;48.980;8.138;2023-10-31T04:57:40;4.08;;;0.70;;
33993;SDS011;20673;48.980;8.138;2023-10-31T05:00:06;2.10;;;0.60;;
33993;SDS011;20673;48.980;8.138;2023-10-31T05:02:33;0.55;;;0.50;;
33993;SDS011;20673;48.980;8.138;2023-10-31T05:05:00;1.95;;;0.65;;
33993;SDS011;20673;48.980;8.138;2023-10-31T05:07:26;1.20;;;0.70;;
33993;SDS011;20673;48.980;8.138;2023-10-31T05:09:52;2.35;;;0.33;;
33993;SDS011;20673;48.980;8.138;2023-10-31T05:12:18;2.87;;;0.47;;
33993;SDS011;20673;48.980;8.138;2023-10-31T05:14:44;1.40;;;0.35;;
33993;SDS011;20673;48.980;8.138;2023-10-31T05:17:10;1.85;;;0.60;;
33993;SDS011;20673;48.980;8.138;2023-10-31T05:19:36;1.55;;;0.50;;
33993;SDS011;20673;48.980;8.138;2023-10-31T05:22:02;1.00;;;0.62;;
33993;SDS011;20673;48.980;8.138;2023-10-31T05:24:28;3.40;;;0.65;;
33993;SDS011;20673;48.980;8.138;2023-10-31T05:26:54;6.55;;;0.70;;
33993;SDS011;20673;48.980;8.138;2023-10-31T05:29:21;0.95;;;0.30;;
33993;SDS011;20673;48.980;8.138;2023-10-31T05:31:47;2.55;;;0.62;;
33993;SDS011;20673;48.980;8.138;2023-10-31T05:34:14;3.10;;;0.70;;
33993;SDS011;20673;48.980;8.138;2023-10-31T05:36:40;0.85;;;0.40;;
33993;SDS011;20673;48.980;8.138;2023-10-31T05:39:06;4.95;;;0.62;;
33993;SDS011;20673;48.980;8.138;2023-10-31T05:41:34;3.52;;;0.70;;
33993;SDS011;20673;48.980;8.138;2023-10-31T05:44:01;1.65;;;0.40;;
33993;SDS011;20673;48.980;8.138;2023-10-31T05:46:27;1.40;;;0.60;;
33993;SDS011;20673;48.980;8.138;2023-10-31T05:48:53;2.52;;;0.30;;
33993;SDS011;20673;48.980;8.138;2023-10-31T05:51:19;1.17;;;0.40;;
33993;SDS011;20673;48.980;8.138;2023-10-31T05:53:46;2.90;;;0.53;;
33993;SDS011;20673;48.980;8.138;2023-10-31T05:56:14;1.37;;;0.50;;
33993;SDS011;20673;48.980;8.138;2023-10-31T05:58:41;3.17;;;0.70;;
33993;SDS011;20673;48.980;8.138;2023-10-31T06:01:08;2.45;;;0.50;;
33993;SDS011;20673;48.980;8.138;2023-10-31T06:03:34;1.12;;;0.50;;
33993;SDS011;20673;48.980;8.138;2023-10-31T06:06:01;1.17;;;0.70;;
33993;SDS011;20673;48.980;8.138;2023-10-31T06:08:27;2.30;;;0.60;;
33993;SDS011;20673;48.980;8.138;2023-10-31T06:10:55;1.77;;;0.60;;
33993;SDS011;20673;48.980;8.138;2023-10-31T06:13:22;0.57;;;0.57;;
33993;SDS011;20673;48.980;8.138;2023-10-31T06:15:51;1.05;;;0.57;;
33993;SDS011;20673;48.980;8.138;2023-10-31T06:18:17;2.08;;;0.60;;
33993;SDS011;20673;48.980;8.138;2023-10-31T06:20:43;1.62;;;0.50;;
33993;SDS011;20673;48.980;8.138;2023-10-31T06:23:10;2.85;;;0.55;;
33993;SDS011;20673;48.980;8.138;2023-10-31T06:25:36;2.05;;;0.50;;
33993;SDS011;20673;48.980;8.138;2023-10-31T06:28:02;0.93;;;0.53;;
33993;SDS011;20673;48.980;8.138;2023-10-31T06:30:29;4.95;;;1.42;;
33993;SDS011;20673;48.980;8.138;2023-10-31T06:32:55;1.77;;;0.88;;
33993;SDS011;20673;48.980;8.138;2023-10-31T06:35:22;1.70;;;0.90;;
33993;SDS011;20673;48.980;8.138;2023-10-31T06:37:52;2.90;;;1.10;;
33993;SDS011;20673;48.980;8.138;2023-10-31T06:40:21;2.50;;;0.62;;
33993;SDS011;20673;48.980;8.138;2023-10-31T06:42:47;4.62;;;0.90;;
33993;SDS011;20673;48.980;8.138;2023-10-31T06:45:13;4.35;;;0.90;;
33993;SDS011;20673;48.980;8.138;2023-10-31T06:47:40;4.12;;;1.02;;
33993;SDS011;20673;48.980;8.138;2023-10-31T06:50:07;1.62;;;0.78;;
33993;SDS011;20673;48.980;8.138;2023-10-31T06:52:34;3.02;;;0.90;;
33993;SDS011;20673;48.980;8.138;2023-10-31T06:55:01;3.62;;;2.20;;
33993;SDS011;20673;48.980;8.138;2023-10-31T06:57:28;3.55;;;1.15;;
33993;SDS011;20673;48.980;8.138;2023-10-31T06:59:54;4.15;;;1.07;;
33993;SDS011;20673;48.980;8.138;2023-10-31T07:02:21;2.90;;;0.70;;
33993;SDS011;20673;48.980;8.138;2023-10-31T07:04:47;2.50;;;0.60;;
33993;SDS011;20673;48.980;8.138;2023-10-31T07:07:14;4.15;;;1.07;;
33993;SDS011;20673;48.980;8.138;2023-10-31T07:09:40;2.90;;;0.65;;
33993;SDS011;20673;48.980;8.138;2023-10-31T07:12:06;4.72;;;0.80;;
33993;SDS011;20673;48.980;8.138;2023-10-31T07:14:32;2.50;;;0.80;;
33993;SDS011;20673;48.980;8.138;2023-10-31T07:16:59;1.92;;;0.80;;
33993;SDS011;20673;48.980;8.138;2023-10-31T07:19:25;2.15;;;0.80;;
33993;SDS011;20673;48.980;8.138;2023-10-31T07:21:51;1.50;;;0.60;;
33993;SDS011;20673;48.980;8.138;2023-10-31T07:24:17;1.80;;;0.93;;
33993;SDS011;20673;48.980;8.138;2023-10-31T07:26:44;3.77;;;0.50;;
33993;SDS011;20673;48.980;8.138;2023-10-31T07:29:10;2.65;;;0.50;;
33993;SDS011;20673;48.980;8.138;2023-10-31T07:31:37;2.70;;;0.90;;
33993;SDS011;20673;48.980;8.138;2023-10-31T07:34:04;2.60;;;0.90;;
33993;SDS011;20673;48.980;8.138;2023-10-31T07:36:31;4.00;;;0.93;;
33993;SDS011;20673;48.980;8.138;2023-10-31T07:39:04;2.62;;;0.70;;
33993;SDS011;20673;48.980;8.138;2023-10-31T07:41:31;2.67;;;1.12;;
33993;SDS011;20673;48.980;8.138;2023-10-31T07:43:57;1.80;;;0.57;;
33993;SDS011;20673;48.980;8.138;2023-10-31T07:46:23;1.57;;;0.70;;
33993;SDS011;20673;48.980;8.138;2023-10-31T07:48:49;2.08;;;0.50;;
33993;SDS011;20673;48.980;8.138;2023-10-31T07:51:16;2.67;;;0.88;;
33993;SDS011;20673;48.980;8.138;2023-10-31T07:53:42;2.02;;;0.90;;
33993;SDS011;20673;48.980;8.138;2023-10-31T07:56:17;3.08;;;0.70;;
33993;SDS011;20673;48.980;8.138;2023-10-31T07:58:42;5.58;;;1.00;;
33993;SDS011;20673;48.980;8.138;2023-10-31T08:01:08;2.50;;;1.10;;
33993;SDS011;20673;48.980;8.138;2023-10-31T08:03:38;4.50;;;1.07;;
33993;SDS011;20673;48.980;8.138;2023-10-31T08:06:05;3.00;;;0.78;;
33993;SDS011;20673;48.980;8.138;2023-10-31T08:08:32;4.78;;;0.80;;
33993;SDS011;20673;48.980;8.138;2023-10-31T08:10:59;2.67;;;0.80;;
33993;SDS011;20673;48.980;8.138;2023-10-31T08:13:26;4.65;;;0.75;;
33993;SDS011;20673;48.980;8.138;2023-10-31T08:15:52;2.80;;;0.70;;
33993;SDS011;20673;48.980;8.138;2023-10-31T08:18:18;3.02;;;0.90;;
33993;SDS011;20673;48.980;8.138;2023-10-31T08:20:45;4.97;;;0.90;;
33993;SDS011;20673;48.980;8.138;2023-10-31T08:23:13;2.87;;;0.60;;
33993;SDS011;20673;48.980;8.138;2023-10-31T08:25:39;3.55;;;0.80;;
33993;SDS011;20673;48.980;8.138;2023-10-31T08:28:06;2.08;;;1.00;;
33993;SDS011;20673;48.980;8.138;2023-10-31T08:30:32;2.77;;;1.07;;
33993;SDS011;20673;48.980;8.138;2023-10-31T08:32:59;3.00;;;0.85;;
33993;SDS011;20673;48.980;8.138;2023-10-31T08:35:25;1.92;;;0.82;;
33993;SDS011;20673;48.980;8.138;2023-10-31T08:37:51;3.58;;;0.80;;
33993;SDS011;20673;48.980;8.138;2023-10-31T08:40:17;3.35;;;1.60;;
33993;SDS011;20673;48.980;8.138;2023-10-31T08:42:43;5.40;;;0.90;;
33993;SDS011;20673;48.980;8.138;2023-10-31T08:45:10;2.25;;;0.75;;
33993;SDS011;20673;48.980;8.138;2023-10-31T08:47:36;2.90;;;0.88;;
33993;SDS011;20673;48.980;8.138;2023-10-31T08:50:02;4.05;;;0.93;;
33993;SDS011;20673;48.980;8.138;2023-10-31T08:52:29;3.77;;;1.02;;
33993;SDS011;20673;48.980;8.138;2023-10-31T08:54:55;2.72;;;0.70;;
33993;SDS011;20673;48.980;8.138;2023-10-31T08:57:22;5.85;;;1.85;;
33993;SDS011;20673;48.980;8.138;2023-10-31T08:59:48;6.33;;;0.70;;
33993;SDS011;20673;48.980;8.138;2023-10-31T09:02:14;3.42;;;1.67;;
33993;SDS011;20673;48.980;8.138;2023-10-31T09:04:41;3.27;;;0.95;;
33993;SDS011;20673;48.980;8.138;2023-10-31T09:07:07;5.85;;;0.90;;
33993;SDS011;20673;48.980;8.138;2023-10-31T09:09:34;5.40;;;0.80;;
33993;SDS011;20673;48.980;8.138;2023-10-31T09:12:00;3.37;;;0.80;;
33993;SDS011;20673;48.980;8.138;2023-10-31T09:14:26;3.35;;;1.02;;
33993;SDS011;20673;48.980;8.138;2023-10-31T09:16:52;5.47;;;1.25;;
33993;SDS011;20673;48.980;8.138;2023-10-31T09:19:18;3.93;;;1.20;;
33993;SDS011;20673;48.980;8.138;2023-10-31T09:21:44;2.92;;;1.12;;
33993;SDS011;20673;48.980;8.138;2023-10-31T09:24:11;3.13;;;0.90;;
33993;SDS011;20673;48.980;8.138;2023-10-31T09:26:37;3.70;;;0.98;;
33993;SDS011;20673;48.980;8.138;2023-10-31T09:29:10;3.73;;;1.03;;
33993;SDS011;20673;48.980;8.138;2023-10-31T09:31:37;4.27;;;1.17;;
33993;SDS011;20673;48.980;8.138;2023-10-31T09:34:03;4.80;;;1.57;;
33993;SDS011;20673;48.980;8.138;2023-10-31T09:36:32;3.80;;;1.47;;
33993;SDS011;20673;48.980;8.138;2023-10-31T09:39:01;5.17;;;1.77;;
33993;SDS011;20673;48.980;8.138;2023-10-31T09:41:28;5.25;;;1.60;;
33993;SDS011;20673;48.980;8.138;2023-10-31T09:43:57;2.33;;;1.17;;
33993;SDS011;20673;48.980;8.138;2023-10-31T09:46:23;5.03;;;1.17;;
33993;SDS011;20673;48.980;8.138;2023-10-31T09:48:50;6.57;;;1.47;;
33993;SDS011;20673;48.980;8.138;2023-10-31T09:51:17;5.78;;;1.67;;
33993;SDS011;20673;48.980;8.138;2023-10-31T09:53:44;3.73;;;1.27;;
33993;SDS011;20673;48.980;8.138;2023-10-31T09:56:12;6.10;;;1.43;;
33993;SDS011;20673;48.980;8.138;2023-10-31T09:58:40;3.83;;;1.23;;
33993;SDS011;20673;48.980;8.138;2023-10-31T10:01:07;4.93;;;1.47;;
33993;SDS011;20673;48.980;8.138;2023-10-31T10:03:33;6.27;;;1.30;;
33993;SDS011;20673;48.980;8.138;2023-10-31T10:05:59;5.40;;;1.63;;
33993;SDS011;20673;48.980;8.138;2023-10-31T10:08:28;4.63;;;1.03;;
33993;SDS011;20673;48.980;8.138;2023-10-31T10:10:54;3.67;;;1.10;;
33993;SDS011;20673;48.980;8.138;2023-10-31T10:13:21;3.77;;;1.45;;
33993;SDS011;20673;48.980;8.138;2023-10-31T10:15:48;3.67;;;1.13;;
33993;SDS011;20673;48.980;8.138;2023-10-31T10:18:29;4.90;;;1.20;;
33993;SDS011;20673;48.980;8.138;2023-10-31T10:21:00;5.23;;;1.27;;
33993;SDS011;20673;48.980;8.138;2023-10-31T10:23:29;4.53;;;1.23;;
33993;SDS011;20673;48.980;8.138;2023-10-31T10:25:57;4.13;;;1.30;;
33993;SDS011;20673;48.980;8.138;2023-10-31T10:28:25;8.13;;;1.47;;
33993;SDS011;20673;48.980;8.138;2023-10-31T10:30:55;3.70;;;1.27;;
33993;SDS011;20673;48.980;8.138;2023-10-31T10:33:23;4.60;;;1.17;;
33993;SDS011;20673;48.980;8.138;2023-10-31T10:35:49;3.57;;;1.60;;
33993;SDS011;20673;48.980;8.138;2023-10-31T10:38:19;5.23;;;1.20;;
33993;SDS011;20673;48.980;8.138;2023-10-31T10:40:47;4.87;;;1.30;;
33993;SDS011;20673;48.980;8.138;2023-10-31T10:43:24;7.07;;;1.30;;
33993;SDS011;20673;48.980;8.138;2023-10-31T10:45:56;5.03;;;1.37;;
33993;SDS011;20673;48.980;8.138;2023-10-31T10:48:24;4.42;;;1.20;;
33993;SDS011;20673;48.980;8.138;2023-10-31T10:51:05;3.40;;;1.30;;
33993;SDS011;20673;48.980;8.138;2023-10-31T10:53:49;5.73;;;1.73;;
33993;SDS011;20673;48.980;8.138;2023-10-31T10:56:26;3.77;;;1.37;;
33993;SDS011;20673;48.980;8.138;2023-10-31T10:59:09;8.83;;;1.77;;
33993;SDS011;20673;48.980;8.138;2023-10-31T11:01:38;4.83;;;1.32;;
33993;SDS011;20673;48.980;8.138;2023-10-31T11:04:06;6.47;;;1.77;;
33993;SDS011;20673;48.980;8.138;2023-10-31T11:06:33;3.83;;;1.70;;
33993;SDS011;20673;48.980;8.138;2023-10-31T11:09:02;5.17;;;1.73;;
33993;SDS011;20673;48.980;8.138;2023-10-31T11:11:32;6.53;;;1.93;;
33993;SDS011;20673;48.980;8.138;2023-10-31T11:13:58;7.60;;;2.37;;
33993;SDS011;20673;48.980;8.138;2023-10-31T11:17:02;9.13;;;2.70;;
33993;SDS011;20673;48.980;8.138;2023-10-31T11:19:19;6.37;;;2.37;;
33993;SDS011;20673;48.980;8.138;2023-10-31T11:21:57;5.00;;;2.90;;
33993;SDS011;20673;48.980;8.138;2023-10-31T11:24:28;6.77;;;3.43;;
33993;SDS011;20673;48.980;8.138;2023-10-31T11:27:00;5.87;;;3.23;;
33993;SDS011;20673;48.980;8.138;2023-10-31T11:29:32;7.23;;;2.63;;
33993;SDS011;20673;48.980;8.138;2023-10-31T11:32:00;6.47;;;2.77;;
33993;SDS011;20673;48.980;8.138;2023-10-31T11:34:26;3.57;;;2.33;;
33993;SDS011;20673;48.980;8.138;2023-10-31T11:37:16;8.47;;;2.63;;
33993;SDS011;20673;48.980;8.138;2023-10-31T11:39:43;3.50;;;1.80;;
33993;SDS011;20673;48.980;8.138;2023-10-31T11:42:40;4.70;;;2.40;;
33993;SDS011;20673;48.980;8.138;2023-10-31T11:45:07;8.03;;;2.90;;
33993;SDS011;20673;48.980;8.138;2023-10-31T11:47:46;9.27;;;3.70;;
33993;SDS011;20673;48.980;8.138;2023-10-31T11:50:16;7.20;;;3.57;;
33993;SDS011;20673;48.980;8.138;2023-10-31T11:52:42;6.33;;;3.60;;
33993;SDS011;20673;48.980;8.138;2023-10-31T11:55:10;6.70;;;2.77;;
33993;SDS011;20673;48.980;8.138;2023-10-31T11:57:40;5.83;;;2.90;;
33993;SDS011;20673;48.980;8.138;2023-10-31T12:00:06;6.57;;;2.60;;
33993;SDS011;20673;48.980;8.138;2023-10-31T12:02:36;6.53;;;2.43;;
33993;SDS011;20673;48.980;8.138;2023-10-31T12:05:06;4.63;;;1.60;;
33993;SDS011;20673;48.980;8.138;2023-10-31T12:07:45;3.73;;;1.33;;
33993;SDS011;20673;48.980;8.138;2023-10-31T12:10:11;2.77;;;1.40;;
33993;SDS011;20673;48.980;8.138;2023-10-31T12:12:40;3.63;;;1.10;;
33993;SDS011;20673;48.980;8.138;2023-10-31T12:15:07;2.40;;;1.10;;
33993;SDS011;20673;48.980;8.138;2023-10-31T12:17:35;2.53;;;1.00;;
33993;SDS011;20673;48.980;8.138;2023-10-31T12:20:05;3.60;;;1.90;;
33993;SDS011;20673;48.980;8.138;2023-10-31T12:22:33;3.80;;;1.80;;
33993;SDS011;20673;48.980;8.138;2023-10-31T12:25:04;5.23;;;1.97;;
33993;SDS011;20673;48.980;8.138;2023-10-31T12:30:20;9.33;;;4.58;;
33993;SDS011;20673;48.980;8.138;2023-10-31T12:32:45;8.47;;;5.07;;
33993;SDS011;20673;48.980;8.138;2023-10-31T12:35:22;8.83;;;5.30;;
33993;SDS011;20673;48.980;8.138;2023-10-31T12:37:51;4.73;;;4.27;;
33993;SDS011;20673;48.980;8.138;2023-10-31T12:40:23;8.00;;;4.47;;
33993;SDS011;20673;48.980;8.138;2023-10-31T12:42:48;7.53;;;3.80;;
33993;SDS011;20673;48.980;8.138;2023-10-31T12:45:16;5.10;;;3.60;;
33993;SDS011;20673;48.980;8.138;2023-10-31T12:47:44;5.57;;;3.00;;
33993;SDS011;20673;48.980;8.138;2023-10-31T12:50:14;4.43;;;2.70;;
33993;SDS011;20673;48.980;8.138;2023-10-31T12:52:45;3.40;;;1.85;;
33993;SDS011;20673;48.980;8.138;2023-10-31T12:55:25;3.10;;;2.10;;
33993;SDS011;20673;48.980;8.138;2023-10-31T12:57:51;6.85;;;1.80;;
33993;SDS011;20673;48.980;8.138;2023-10-31T13:00:18;5.55;;;1.80;;
33993;SDS011;20673;48.980;8.138;2023-10-31T13:02:48;3.90;;;1.27;;
33993;SDS011;20673;48.980;8.138;2023-10-31T13:05:14;3.70;;;1.27;;
33993;SDS011;20673;48.980;8.138;2023-10-31T13:07:48;3.90;;;1.43;;
33993;SDS011;20673;48.980;8.138;2023-10-31T13:10:20;3.57;;;1.23;;
33993;SDS011;20673;48.980;8.138;2023-10-31T13:12:49;4.28;;;1.62;;
33993;SDS011;20673;48.980;8.138;2023-10-31T13:15:18;7.87;;;1.50;;
33993;SDS011;20673;48.980;8.138;2023-10-31T13:17:49;2.50;;;1.35;;
33993;SDS011;20673;48.980;8.138;2023-10-31T13:20:17;4.65;;;1.37;;
33993;SDS011;20673;48.980;8.138;2023-10-31T13:22:45;3.10;;;0.72;;
33993;SDS011;20673;48.980;8.138;2023-10-31T13:25:13;1.77;;;0.85;;
33993;SDS011;20673;48.980;8.138;2023-10-31T13:27:42;5.97;;;1.27;;
33993;SDS011;20673;48.980;8.138;2023-10-31T13:30:10;4.45;;;0.88;;
33993;SDS011;20673;48.980;8.138;2023-10-31T13:32:37;4.13;;;0.90;;
33993;SDS011;20673;48.980;8.138;2023-10-31T13:35:04;2.75;;;0.72;;
33993;SDS011;20673;48.980;8.138;2023-10-31T13:37:31;4.05;;;0.88;;
33993;SDS011;20673;48.980;8.138;2023-10-31T13:39:59;2.55;;;0.98;;
33993;SDS011;20673;48.980;8.138;2023-10-31T13:42:25;3.52;;;0.78;;
33993;SDS011;20673;48.980;8.138;2023-10-31T13:44:51;3.67;;;0.70;;
33993;SDS011;20673;48.980;8.138;2023-10-31T13:47:17;3.72;;;0.70;;
33993;SDS011;20673;48.980;8.138;2023-10-31T13:49:43;2.40;;;0.70;;
33993;SDS011;20673;48.980;8.138;2023-10-31T13:52:10;4.25;;;1.15;;
33993;SDS011;20673;48.980;8.138;2023-10-31T13:54:36;2.27;;;0.78;;
33993;SDS011;20673;48.980;8.138;2023-10-31T13:57:03;2.50;;;0.80;;
33993;SDS011;20673;48.980;8.138;2023-10-31T13:59:29;0.83;;;0.60;;
33993;SDS011;20673;48.980;8.138;2023-10-31T14:01:57;2.35;;;0.45;;
33993;SDS011;20673;48.980;8.138;2023-10-31T14:04:23;2.93;;;0.70;;
33993;SDS011;20673;48.980;8.138;2023-10-31T14:06:49;2.37;;;0.80;;
33993;SDS011;20673;48.980;8.138;2023-10-31T14:09:16;1.30;;;0.70;;
33993;SDS011;20673;48.980;8.138;2023-10-31T14:11:43;3.20;;;0.83;;
33993;SDS011;20673;48.980;8.138;2023-10-31T14:14:09;2.27;;;0.70;;
33993;SDS011;20673;48.980;8.138;2023-10-31T14:16:36;3.53;;;1.27;;
33993;SDS011;20673;48.980;8.138;2023-10-31T14:19:04;3.20;;;1.57;;
33993;SDS011;20673;48.980;8.138;2023-10-31T14:21:32;3.00;;;1.20;;
33993;SDS011;20673;48.980;8.138;2023-10-31T14:24:00;2.30;;;1.00;;
33993;SDS011;20673;48.980;8.138;2023-10-31T14:26:29;3.20;;;0.97;;
33993;SDS011;20673;48.980;8.138;2023-10-31T14:28:58;1.87;;;0.50;;
33993;SDS011;20673;48.980;8.138;2023-10-31T14:31:25;3.70;;;0.67;;
33993;SDS011;20673;48.980;8.138;2023-10-31T14:33:51;2.80;;;1.00;;
33993;SDS011;20673;48.980;8.138;2023-10-31T14:36:17;2.73;;;0.87;;
33993;SDS011;20673;48.980;8.138;2023-10-31T14:38:43;1.70;;;0.70;;
33993;SDS011;20673;48.980;8.138;2023-10-31T14:41:09;2.13;;;0.70;;
33993;SDS011;20673;48.980;8.138;2023-10-31T14:43:35;1.30;;;0.60;;
33993;SDS011;20673;48.980;8.138;2023-10-31T14:46:02;1.73;;;0.67;;
33993;SDS011;20673;48.980;8.138;2023-10-31T14:48:30;1.93;;;0.87;;
33993;SDS011;20673;48.980;8.138;2023-10-31T14:50:56;2.27;;;0.53;;
33993;SDS011;20673;48.980;8.138;2023-10-31T14:53:25;3.23;;;0.93;;
33993;SDS011;20673;48.980;8.138;2023-10-31T14:55:51;2.17;;;0.77;;